createdAt,value
2023-05-10T00:00:41.678Z,3.13
2023-05-10T00:03:09.252Z,3.10
2023-05-10T00:05:36.700Z,3.30
2023-05-10T00:08:04.170Z,3.17
2023-05-10T00:10:31.622Z,3.15
2023-05-10T00:12:59.498Z,3.30
2023-05-10T00:15:26.884Z,3.80
2023-05-10T00:17:54.369Z,3.63
2023-05-10T00:20:21.740Z,2.45
2023-05-10T00:22:49.265Z,2.63
2023-05-10T00:25:16.801Z,3.28
2023-05-10T00:27:44.143Z,3.55
2023-05-10T00:30:12.290Z,4.00
2023-05-10T00:32:39.675Z,3.25
2023-05-10T00:35:07.355Z,3.40
2023-05-10T00:37:34.816Z,3.55
2023-05-10T00:40:02.312Z,3.25
2023-05-10T00:42:31.630Z,2.80
2023-05-10T00:44:59.209Z,3.15
2023-05-10T00:47:26.923Z,2.70
2023-05-10T00:49:54.346Z,3.03
2023-05-10T00:52:21.797Z,3.00
2023-05-10T00:54:49.231Z,3.20
2023-05-10T00:57:17.543Z,3.33
2023-05-10T00:59:45.110Z,3.50
2023-05-10T01:02:12.728Z,3.28
2023-05-10T01:04:40.723Z,3.05
2023-05-10T01:07:08.285Z,3.33
2023-05-10T01:09:35.740Z,2.63
2023-05-10T01:12:04.256Z,3.28
2023-05-10T01:14:31.971Z,3.15
2023-05-10T01:16:59.551Z,3.17
2023-05-10T01:19:28.555Z,3.63
2023-05-10T01:24:59.475Z,3.30
2023-05-10T01:36:32.242Z,3.13
2023-05-10T01:39:05.140Z,3.00
2023-05-10T01:47:03.307Z,2.80
2023-05-10T01:49:34.854Z,2.45
2023-05-10T01:52:11.601Z,2.85
2023-05-10T01:54:43.105Z,3.70
2023-05-10T01:57:11.683Z,3.17
2023-05-10T01:59:42.057Z,2.50
2023-05-10T02:02:13.223Z,2.85
2023-05-10T02:04:41.929Z,1.98
2023-05-10T02:07:10.047Z,2.17
2023-05-10T02:09:37.842Z,2.72
2023-05-10T02:12:07.362Z,2.47
2023-05-10T02:14:37.618Z,2.00
2023-05-10T02:17:07.024Z,3.47
2023-05-10T02:19:35.482Z,2.80
2023-05-10T02:22:23.135Z,2.75
2023-05-10T02:24:51.387Z,3.00
2023-05-10T02:27:20.032Z,3.10
2023-05-10T02:29:48.105Z,3.90
2023-05-10T02:32:17.801Z,4.22
2023-05-10T02:34:46.832Z,3.40
2023-05-10T02:37:16.142Z,3.53
2023-05-10T02:39:46.667Z,3.05
2023-05-10T02:42:18.490Z,3.00
2023-05-10T02:44:48.700Z,3.58
2023-05-10T02:47:16.565Z,4.00
2023-05-10T02:49:44.087Z,4.35
2023-05-10T02:52:11.915Z,3.20
2023-05-10T02:54:45.905Z,3.80
2023-05-10T02:57:20.517Z,4.45
2023-05-10T02:59:47.926Z,3.42
2023-05-10T03:02:15.222Z,3.13
2023-05-10T03:04:42.945Z,4.32
2023-05-10T03:07:10.549Z,3.55
2023-05-10T03:09:38.385Z,3.67
2023-05-10T03:12:13.154Z,4.30
2023-05-10T03:17:29.644Z,5.45
2023-05-10T03:20:03.684Z,3.70
2023-05-10T03:22:36.101Z,3.97
2023-05-10T03:25:07.189Z,4.13
2023-05-10T03:27:41.441Z,4.43
2023-05-10T03:30:10.401Z,3.38
2023-05-10T03:32:38.302Z,3.92
2023-05-10T03:35:10.270Z,3.72
2023-05-10T03:37:58.161Z,3.72
2023-05-10T03:40:26.239Z,4.50
2023-05-10T03:42:53.672Z,3.05
2023-05-10T03:45:21.287Z,3.75
2023-05-10T03:47:48.678Z,4.82
2023-05-10T03:50:16.564Z,4.53
2023-05-10T03:52:44.827Z,5.38
2023-05-10T03:55:12.214Z,4.78
2023-05-10T03:57:39.749Z,4.30
2023-05-10T04:00:08.468Z,5.20
2023-05-10T04:02:55.304Z,3.67
2023-05-10T04:05:23.930Z,5.32
2023-05-10T04:07:53.461Z,4.10
2023-05-10T04:10:20.866Z,4.15
2023-05-10T04:12:48.426Z,5.55
2023-05-10T04:15:16.010Z,4.82
2023-05-10T04:17:43.405Z,4.85
2023-05-10T04:20:11.529Z,4.75
2023-05-10T04:22:38.946Z,4.90
2023-05-10T04:25:07.354Z,4.57
2023-05-10T04:27:34.865Z,5.05
2023-05-10T04:30:03.799Z,4.20
2023-05-10T04:32:34.142Z,4.25
2023-05-10T04:35:01.646Z,4.80
2023-05-10T04:37:30.914Z,5.30
2023-05-10T04:39:58.321Z,4.55
2023-05-10T04:42:25.758Z,4.65
2023-05-10T04:44:53.373Z,4.60
2023-05-10T04:47:20.881Z,4.68
2023-05-10T04:49:48.377Z,5.30
2023-05-10T04:52:17.570Z,5.18
2023-05-10T04:54:45.079Z,5.45
2023-05-10T04:57:12.792Z,5.55
2023-05-10T04:59:40.286Z,5.20
2023-05-10T05:02:07.775Z,4.68
2023-05-10T05:04:35.345Z,5.03
2023-05-10T05:07:02.793Z,5.13
2023-05-10T05:09:30.181Z,4.80
2023-05-10T05:11:57.457Z,4.18
2023-05-10T05:14:26.385Z,4.53
2023-05-10T05:16:54.253Z,4.97
2023-05-10T05:19:21.994Z,4.55
2023-05-10T05:21:49.400Z,4.57
2023-05-10T05:24:16.765Z,4.38
2023-05-10T05:26:44.310Z,4.70
2023-05-10T05:29:11.966Z,4.75
2023-05-10T05:31:39.374Z,4.43
2023-05-10T05:34:06.846Z,4.43
2023-05-10T05:36:39.487Z,4.45
2023-05-10T05:39:06.904Z,4.00
2023-05-10T05:41:34.711Z,4.78
2023-05-10T05:44:02.051Z,4.40
2023-05-10T05:46:29.559Z,5.15
2023-05-10T05:48:57.234Z,4.40
2023-05-10T05:51:24.749Z,5.32
2023-05-10T05:53:52.159Z,4.20
2023-05-10T05:56:25.568Z,4.82
2023-05-10T05:58:53.288Z,5.13
2023-05-10T06:01:20.850Z,4.22
2023-05-10T06:03:49.412Z,4.60
2023-05-10T06:06:17.820Z,4.13
2023-05-10T06:08:48.311Z,4.10
2023-05-10T06:11:15.923Z,2.75
2023-05-10T06:13:43.650Z,3.00
2023-05-10T06:16:11.114Z,3.25
2023-05-10T06:18:38.618Z,2.45
2023-05-10T06:21:06.192Z,2.60
2023-05-10T06:23:33.611Z,2.35
2023-05-10T06:26:01.130Z,2.88
2023-05-10T06:28:28.512Z,2.78
2023-05-10T06:30:55.933Z,2.40
2023-05-10T06:33:23.389Z,2.47
2023-05-10T06:35:50.809Z,2.17
2023-05-10T06:38:18.496Z,2.60
2023-05-10T06:40:47.018Z,2.00
2023-05-10T06:43:14.634Z,1.80
2023-05-10T06:45:42.420Z,1.80
2023-05-10T06:48:10.011Z,1.90
2023-05-10T06:50:37.548Z,1.65
2023-05-10T06:53:05.025Z,1.52
2023-05-10T06:55:32.501Z,1.30
2023-05-10T06:57:59.945Z,1.30
2023-05-10T07:00:27.455Z,1.42
2023-05-10T07:02:55.056Z,1.15
2023-05-10T07:05:23.243Z,1.15
2023-05-10T07:07:50.677Z,1.42
2023-05-10T07:10:18.975Z,1.17
2023-05-10T07:12:47.083Z,1.08
2023-05-10T07:15:14.948Z,1.40
2023-05-10T07:17:44.081Z,0.93
2023-05-10T07:20:13.690Z,1.13
2023-05-10T07:22:41.164Z,1.02
2023-05-10T07:25:09.048Z,1.23
2023-05-10T07:27:36.619Z,1.10
2023-05-10T07:30:04.368Z,1.25
2023-05-10T07:32:34.934Z,0.90
2023-05-10T07:35:02.453Z,1.42
2023-05-10T07:37:31.921Z,1.05
2023-05-10T07:39:59.315Z,1.23
2023-05-10T07:42:26.780Z,0.90
2023-05-10T07:44:54.229Z,1.15
2023-05-10T07:47:21.848Z,0.85
2023-05-10T07:49:49.317Z,1.50
2023-05-10T07:52:16.727Z,1.10
2023-05-10T07:54:44.252Z,0.80
2023-05-10T07:57:11.970Z,1.83
2023-05-10T07:59:39.482Z,1.08
2023-05-10T08:02:07.638Z,1.20
2023-05-10T08:04:35.162Z,1.38
2023-05-10T08:07:02.592Z,1.70
2023-05-10T08:09:30.299Z,1.67
2023-05-10T08:11:57.757Z,1.42
2023-05-10T08:14:25.154Z,1.48
2023-05-10T08:16:52.943Z,1.30
2023-05-10T08:19:22.539Z,1.20
2023-05-10T08:21:50.157Z,1.02
2023-05-10T08:24:17.731Z,0.88
2023-05-10T08:26:45.210Z,0.90
2023-05-10T08:29:12.770Z,1.00
2023-05-10T08:31:40.376Z,0.73
2023-05-10T08:34:08.002Z,0.90
2023-05-10T08:36:35.354Z,0.80
2023-05-10T08:39:03.034Z,0.75
2023-05-10T08:41:31.498Z,1.17
2023-05-10T08:43:59.598Z,0.77
2023-05-10T08:46:28.063Z,0.70
2023-05-10T08:48:56.125Z,0.95
2023-05-10T08:51:27.929Z,0.77
2023-05-10T08:53:55.807Z,0.80
2023-05-10T08:56:23.164Z,0.60
2023-05-10T08:58:51.017Z,1.00
2023-05-10T09:01:18.735Z,0.85
2023-05-10T09:03:48.901Z,0.70
2023-05-10T09:06:17.012Z,0.90
2023-05-10T09:08:45.725Z,1.02
2023-05-10T09:11:14.201Z,0.98
2023-05-10T09:13:41.688Z,0.88
2023-05-10T09:16:20.499Z,1.25
2023-05-10T09:18:50.880Z,0.90
2023-05-10T09:21:18.616Z,1.00
2023-05-10T09:23:48.695Z,1.08
2023-05-10T09:26:16.714Z,0.90
2023-05-10T09:28:53.863Z,1.00
2023-05-10T09:33:50.238Z,0.88
2023-05-10T09:36:18.207Z,1.13
2023-05-10T09:38:54.028Z,1.10
2023-05-10T09:41:23.123Z,0.95
2023-05-10T09:43:51.001Z,0.93
2023-05-10T09:46:18.521Z,0.90
2023-05-10T09:48:47.559Z,0.90
2023-05-10T09:51:23.877Z,1.00
2023-05-10T09:54:13.443Z,1.35
2023-05-10T09:56:41.816Z,1.20
2023-05-10T09:59:13.072Z,1.08
2023-05-10T10:01:40.830Z,1.38
2023-05-10T10:04:11.072Z,1.00
2023-05-10T10:06:39.847Z,1.23
2023-05-10T10:09:08.102Z,1.63
2023-05-10T10:11:37.166Z,1.20
2023-05-10T10:14:04.792Z,1.52
2023-05-10T10:16:33.289Z,1.30
2023-05-10T10:19:01.083Z,1.60
2023-05-10T10:21:28.838Z,1.52
2023-05-10T10:23:57.237Z,1.33
2023-05-10T10:26:25.026Z,1.70
2023-05-10T10:29:09.352Z,1.65
2023-05-10T10:32:01.447Z,1.65
2023-05-10T10:34:30.759Z,2.95
2023-05-10T10:36:59.221Z,1.77
2023-05-10T10:39:26.664Z,1.50
2023-05-10T10:41:56.426Z,1.52
2023-05-10T11:03:05.701Z,1.58
2023-05-10T11:16:25.028Z,1.70
2023-05-10T11:21:47.452Z,1.85
2023-05-10T11:24:17.424Z,2.00
2023-05-10T11:26:45.285Z,2.20
2023-05-10T11:29:14.642Z,1.92
2023-05-10T11:31:45.950Z,2.17
2023-05-10T11:34:36.685Z,1.30
2023-05-10T11:37:06.001Z,2.00
2023-05-10T11:39:34.767Z,1.77
2023-05-10T11:42:02.338Z,1.83
2023-05-10T11:44:32.784Z,2.05
2023-05-10T11:47:02.420Z,1.95
2023-05-10T11:49:29.933Z,2.40
2023-05-10T11:52:13.009Z,1.65
2023-05-10T11:54:56.756Z,1.33
2023-05-10T11:57:28.823Z,1.25
2023-05-10T11:59:57.766Z,2.17
2023-05-10T12:02:25.644Z,1.33
2023-05-10T12:04:53.339Z,1.52
2023-05-10T12:07:20.877Z,1.70
2023-05-10T12:10:09.078Z,1.42
2023-05-10T12:12:42.996Z,1.50
2023-05-10T12:15:20.874Z,1.40
2023-05-10T12:17:48.903Z,1.77
2023-05-10T12:22:59.677Z,1.17
2023-05-10T12:25:32.359Z,1.20
2023-05-10T12:28:02.477Z,1.50
2023-05-10T12:30:31.557Z,1.13
2023-05-10T12:33:04.703Z,1.30
2023-05-10T12:35:32.646Z,1.30
2023-05-10T12:38:00.214Z,1.65
2023-05-10T12:40:27.627Z,1.60
2023-05-10T12:42:55.335Z,1.63
2023-05-10T12:45:23.412Z,1.40
2023-05-10T12:47:50.738Z,1.40
2023-05-10T12:50:18.356Z,1.70
2023-05-10T12:52:46.275Z,1.27
2023-05-10T12:55:13.652Z,1.33
2023-05-10T12:57:41.015Z,1.10
2023-05-10T13:00:09.186Z,1.40
2023-05-10T13:02:36.960Z,1.35
2023-05-10T13:05:04.642Z,1.42
2023-05-10T13:07:32.184Z,1.23
2023-05-10T13:09:59.518Z,1.67
2023-05-10T13:12:26.886Z,1.40
2023-05-10T13:14:54.321Z,1.13
2023-05-10T13:17:21.655Z,1.90
2023-05-10T13:19:48.997Z,1.35
2023-05-10T13:22:22.908Z,1.40
2023-05-10T13:24:56.441Z,1.50
2023-05-10T13:27:23.907Z,1.73
2023-05-10T13:29:51.529Z,1.75
2023-05-10T13:32:18.921Z,2.05
2023-05-10T13:34:46.352Z,1.58
2023-05-10T13:37:13.680Z,1.20
2023-05-10T13:39:41.087Z,1.50
2023-05-10T13:42:08.396Z,1.60
2023-05-10T13:44:35.880Z,1.83
2023-05-10T13:47:03.631Z,1.70
2023-05-10T13:49:31.031Z,1.42
2023-05-10T13:51:58.729Z,1.63
2023-05-10T13:54:26.517Z,1.52
2023-05-10T13:56:54.466Z,1.30
2023-05-10T13:59:21.803Z,1.88
2023-05-10T14:01:49.509Z,1.55
2023-05-10T14:04:16.972Z,1.45
2023-05-10T14:06:44.356Z,1.50
2023-05-10T14:09:11.885Z,1.30
2023-05-10T14:11:42.963Z,1.80
2023-05-10T14:14:11.185Z,0.93
2023-05-10T14:16:38.516Z,1.50
2023-05-10T14:19:06.001Z,1.50
2023-05-10T14:21:33.412Z,1.50
2023-05-10T14:24:01.555Z,1.40
2023-05-10T14:26:28.985Z,1.40
2023-05-10T14:28:56.572Z,1.73
2023-05-10T14:31:25.907Z,1.30
2023-05-10T14:33:53.886Z,1.30
2023-05-10T14:36:21.244Z,1.35
2023-05-10T14:38:48.572Z,1.58
2023-05-10T14:41:18.672Z,1.30
2023-05-10T14:43:46.079Z,1.60
2023-05-10T14:46:13.839Z,1.15
2023-05-10T14:48:41.418Z,1.38
2023-05-10T14:51:08.822Z,1.40
2023-05-10T14:53:36.369Z,1.33
2023-05-10T14:56:04.286Z,1.20
2023-05-10T14:58:34.026Z,2.42
2023-05-10T15:01:02.225Z,1.13
2023-05-10T15:03:30.217Z,1.50
2023-05-10T15:05:59.157Z,1.30
2023-05-10T15:08:26.658Z,1.27
2023-05-10T15:10:56.621Z,1.73
2023-05-10T15:13:24.109Z,1.67
2023-05-10T15:15:51.464Z,1.65
2023-05-10T15:18:18.982Z,1.35
2023-05-10T15:20:46.469Z,1.33
2023-05-10T15:23:14.254Z,1.40
2023-05-10T15:25:41.649Z,1.52
2023-05-10T15:28:09.123Z,1.65
2023-05-10T15:30:36.550Z,1.70
2023-05-10T15:33:04.071Z,1.48
2023-05-10T15:35:31.454Z,1.50
2023-05-10T15:37:58.981Z,1.60
2023-05-10T15:40:26.429Z,1.40
2023-05-10T15:42:53.859Z,1.50
2023-05-10T15:45:21.342Z,2.20
2023-05-10T15:47:49.248Z,1.90
2023-05-10T15:50:17.474Z,2.47
2023-05-10T15:52:44.986Z,2.38
2023-05-10T15:55:13.686Z,1.67
2023-05-10T15:57:42.788Z,2.08
2023-05-10T16:00:11.593Z,1.42
2023-05-10T16:02:53.997Z,2.80
2023-05-10T16:05:21.893Z,2.10
2023-05-10T16:07:49.647Z,2.47
2023-05-10T16:10:17.220Z,1.70
2023-05-10T16:12:44.647Z,1.70
2023-05-10T16:15:12.063Z,2.70
2023-05-10T16:17:39.763Z,2.20
2023-05-10T16:20:08.032Z,1.63
2023-05-10T16:22:35.982Z,2.72
2023-05-10T16:25:03.363Z,2.35
2023-05-10T16:27:33.759Z,1.83
2023-05-10T16:30:01.386Z,1.40
2023-05-10T16:32:33.304Z,1.67
2023-05-10T16:35:00.708Z,1.75
2023-05-10T16:37:28.515Z,1.42
2023-05-10T16:39:55.915Z,2.13
2023-05-10T16:42:24.333Z,2.00
2023-05-10T16:44:51.803Z,1.50
2023-05-10T16:47:19.347Z,1.30
2023-05-10T16:49:46.797Z,1.60
2023-05-10T16:52:14.317Z,1.70
2023-05-10T16:54:42.615Z,1.85
2023-05-10T16:57:10.271Z,1.40
2023-05-10T16:59:37.841Z,1.60
2023-05-10T17:02:05.397Z,1.42
2023-05-10T17:04:33.032Z,2.40
2023-05-10T17:07:00.462Z,2.28
2023-05-10T17:09:27.941Z,1.65
2023-05-10T17:11:55.484Z,1.83
2023-05-10T17:14:22.968Z,1.70
2023-05-10T17:16:52.917Z,2.15
2023-05-10T17:19:20.423Z,2.20
2023-05-10T17:21:48.278Z,2.33
2023-05-10T17:24:16.091Z,2.08
2023-05-10T17:26:44.508Z,3.10
2023-05-10T17:29:12.272Z,2.42
2023-05-10T17:31:40.332Z,3.70
2023-05-10T17:34:07.766Z,4.38
2023-05-10T17:36:35.164Z,3.97
2023-05-10T17:39:02.638Z,5.38
2023-05-10T17:41:46.016Z,4.07
2023-05-10T17:44:14.160Z,4.72
2023-05-10T17:46:41.558Z,4.85
2023-05-10T17:49:08.912Z,5.85
2023-05-10T17:51:36.387Z,6.00
2023-05-10T17:54:03.933Z,6.60
2023-05-10T17:56:47.089Z,7.85
2023-05-10T17:59:14.530Z,8.30
2023-05-10T18:01:42.061Z,7.45
2023-05-10T18:04:09.655Z,7.35
2023-05-10T18:06:38.013Z,7.90
2023-05-10T18:09:07.488Z,5.68
2023-05-10T18:11:36.348Z,6.05
2023-05-10T18:14:03.743Z,6.32
2023-05-10T18:16:31.248Z,5.80
2023-05-10T18:18:58.651Z,5.78
2023-05-10T18:21:26.107Z,5.18
2023-05-10T18:23:53.403Z,4.45
2023-05-10T18:26:20.768Z,4.35
2023-05-10T18:28:48.327Z,4.10
2023-05-10T18:31:16.718Z,5.75
2023-05-10T18:33:45.083Z,4.43
2023-05-10T18:36:12.623Z,8.15
2023-05-10T18:38:40.620Z,5.20
2023-05-10T18:41:08.077Z,7.57
2023-05-10T18:43:35.392Z,9.93
2023-05-10T18:46:02.883Z,11.27
2023-05-10T18:48:30.402Z,12.85
2023-05-10T18:50:57.934Z,13.32
2023-05-10T18:53:25.363Z,12.93
2023-05-10T18:55:58.723Z,11.65
2023-05-10T18:58:28.428Z,10.18
2023-05-10T19:00:56.173Z,8.82
2023-05-10T19:03:23.596Z,8.00
2023-05-10T19:05:51.351Z,7.95
2023-05-10T19:08:18.841Z,9.27
2023-05-10T19:10:46.225Z,10.65
2023-05-10T19:13:15.234Z,11.18
2023-05-10T19:15:42.637Z,11.85
2023-05-10T19:18:10.278Z,11.40
2023-05-10T19:20:40.253Z,12.63
2023-05-10T19:23:16.761Z,11.48
2023-05-10T19:25:44.480Z,10.00
2023-05-10T19:28:11.992Z,8.15
2023-05-10T19:30:40.335Z,7.72
2023-05-10T19:33:09.940Z,10.15
2023-05-10T19:35:37.388Z,9.45
2023-05-10T19:38:04.750Z,8.45
2023-05-10T19:40:32.235Z,9.00
2023-05-10T19:43:01.448Z,8.68
2023-05-10T19:45:29.868Z,8.90
2023-05-10T19:47:58.722Z,7.75
2023-05-10T19:50:26.572Z,7.55
2023-05-10T19:52:54.135Z,7.57
2023-05-10T19:55:30.543Z,7.47
2023-05-10T19:58:00.875Z,6.97
2023-05-10T20:00:29.406Z,7.38
2023-05-10T20:02:57.219Z,7.15
2023-05-10T20:05:24.972Z,7.55
2023-05-10T20:07:52.342Z,7.57
2023-05-10T20:10:20.602Z,7.07
2023-05-10T20:12:52.957Z,6.65
2023-05-10T20:15:23.172Z,6.82
2023-05-10T20:17:51.488Z,6.47
2023-05-10T20:20:20.340Z,6.15
2023-05-10T20:22:48.462Z,6.45
2023-05-10T20:25:17.243Z,6.05
2023-05-10T20:27:45.400Z,6.28
2023-05-10T20:30:13.447Z,6.18
2023-05-10T20:32:40.952Z,6.38
2023-05-10T20:35:08.861Z,5.95
2023-05-10T20:37:38.093Z,6.05
2023-05-10T20:40:07.809Z,5.75
2023-05-10T20:42:35.326Z,5.28
2023-05-10T20:45:03.531Z,5.38
2023-05-10T20:47:35.866Z,5.50
2023-05-10T20:50:03.354Z,5.30
2023-05-10T20:52:31.486Z,5.45
2023-05-10T20:54:58.845Z,4.68
2023-05-10T20:57:26.438Z,4.65
2023-05-10T21:12:42.406Z,4.45
2023-05-10T21:15:10.457Z,4.28
2023-05-10T21:17:37.881Z,5.28
2023-05-10T21:20:05.804Z,4.80
2023-05-10T21:22:33.268Z,4.15
2023-05-10T21:25:00.675Z,4.13
2023-05-10T21:27:28.130Z,6.13
2023-05-10T21:29:55.509Z,4.03
2023-05-10T21:32:22.949Z,4.82
2023-05-10T21:34:50.375Z,6.20
2023-05-10T21:37:25.271Z,6.20
2023-05-10T21:39:53.143Z,7.43
2023-05-10T21:42:20.585Z,6.45
2023-05-10T21:44:48.114Z,6.68
2023-05-10T21:47:15.531Z,9.65
2023-05-10T21:49:42.904Z,8.35
2023-05-10T21:52:10.672Z,8.32
2023-05-10T21:54:38.147Z,7.22
2023-05-10T21:57:05.670Z,8.90
2023-05-10T21:59:33.090Z,9.48
2023-05-10T22:02:00.620Z,16.70
2023-05-10T22:04:28.099Z,15.75
2023-05-10T22:06:55.565Z,10.32
2023-05-10T22:09:24.580Z,11.95
2023-05-10T22:11:52.179Z,15.85
2023-05-10T22:14:19.661Z,16.33
2023-05-10T22:16:47.448Z,15.55
2023-05-10T22:19:14.959Z,15.23
2023-05-10T22:21:42.383Z,12.82
2023-05-10T22:24:09.724Z,20.65
2023-05-10T22:26:37.290Z,14.65
2023-05-10T22:29:04.764Z,14.10
2023-05-10T22:31:32.381Z,16.30
2023-05-10T22:34:00.001Z,14.35
2023-05-10T22:36:27.554Z,13.05
2023-05-10T22:38:55.474Z,13.57
2023-05-10T22:41:23.491Z,10.43
2023-05-10T22:43:51.152Z,10.20
2023-05-10T22:46:18.514Z,10.32
2023-05-10T22:48:45.960Z,9.73
2023-05-10T22:51:13.406Z,8.93
2023-05-10T22:53:41.343Z,8.50
2023-05-10T22:56:08.882Z,7.97
2023-05-10T22:58:36.319Z,8.52
2023-05-10T23:01:04.261Z,7.55
2023-05-10T23:03:31.875Z,8.75
2023-05-10T23:05:59.344Z,8.25
2023-05-10T23:08:26.698Z,8.25
2023-05-10T23:10:54.119Z,8.38
2023-05-10T23:13:22.527Z,8.32
2023-05-10T23:15:50.453Z,8.20
2023-05-10T23:18:18.400Z,7.00
2023-05-10T23:20:46.074Z,7.00
2023-05-10T23:23:13.514Z,7.00
2023-05-10T23:25:40.916Z,5.75
2023-05-10T23:28:08.360Z,5.93
2023-05-10T23:30:35.874Z,5.18
2023-05-10T23:33:03.664Z,4.82
2023-05-10T23:35:31.609Z,4.90
2023-05-10T23:37:59.004Z,5.05
2023-05-10T23:40:26.832Z,4.45
2023-05-10T23:42:54.343Z,4.55
2023-05-10T23:45:21.753Z,4.78
2023-05-10T23:47:49.157Z,4.43
2023-05-10T23:50:17.170Z,4.55
2023-05-10T23:52:44.942Z,4.40
2023-05-10T23:55:12.435Z,4.10
2023-05-10T23:57:39.944Z,4.25
